createdAt,value
2018-07-20T00:01:57.198Z,62.78
2018-07-20T00:04:24.079Z,64.12
2018-07-20T00:06:50.960Z,64.00
2018-07-20T00:09:17.859Z,64.92
2018-07-20T00:11:44.736Z,65.06
2018-07-20T00:14:11.602Z,66.24
2018-07-20T00:16:38.492Z,66.21
2018-07-20T00:19:05.315Z,66.66
2018-07-20T00:21:32.260Z,67.09
2018-07-20T00:23:59.118Z,66.30
2018-07-20T00:26:26.032Z,66.12
2018-07-20T00:28:52.943Z,64.96
2018-07-20T00:31:19.818Z,66.32
2018-07-20T00:33:46.655Z,66.50
2018-07-20T00:36:13.502Z,67.61
2018-07-20T00:38:40.350Z,68.33
2018-07-20T00:41:07.367Z,68.41
2018-07-20T00:43:34.384Z,67.22
2018-07-20T00:46:01.291Z,67.47
2018-07-20T00:48:28.184Z,67.09
2018-07-20T00:50:55.103Z,67.50
2018-07-20T00:53:22.028Z,67.62
2018-07-20T00:55:48.983Z,67.25
2018-07-20T00:58:15.859Z,68.03
2018-07-20T01:00:42.742Z,68.65
2018-07-20T01:03:09.591Z,69.58
2018-07-20T01:05:36.444Z,70.60
2018-07-20T01:08:03.440Z,70.75
2018-07-20T01:10:30.323Z,68.93
2018-07-20T01:15:03.879Z,69.39
2018-07-20T01:17:30.759Z,70.19
2018-07-20T01:19:57.661Z,70.71
2018-07-20T01:22:24.523Z,69.07
2018-07-20T01:24:52.472Z,69.95
2018-07-20T01:27:19.314Z,71.96
2018-07-20T01:29:46.251Z,72.32
2018-07-20T01:32:19.373Z,71.81
2018-07-20T01:34:46.272Z,71.49
2018-07-20T01:37:13.147Z,73.34
2018-07-20T01:39:40.071Z,73.70
2018-07-20T01:42:07.188Z,72.89
2018-07-20T01:44:34.058Z,71.32
2018-07-20T01:47:00.906Z,71.37
2018-07-20T01:49:27.799Z,72.32
2018-07-20T01:51:54.660Z,72.21
2018-07-20T01:54:21.522Z,72.36
2018-07-20T01:56:48.411Z,72.30
2018-07-20T01:59:15.327Z,71.98
2018-07-20T02:01:42.195Z,72.71
2018-07-20T02:04:10.083Z,72.22
2018-07-20T02:06:36.988Z,72.41
2018-07-20T02:09:06.831Z,73.26
2018-07-20T02:11:33.724Z,74.86
2018-07-20T02:14:00.595Z,73.81
2018-07-20T02:16:27.551Z,74.64
2018-07-20T02:18:54.424Z,75.73
2018-07-20T02:21:21.278Z,75.08
2018-07-20T02:23:48.144Z,73.20
2018-07-20T02:26:15.052Z,71.90
2018-07-20T02:28:41.909Z,72.06
2018-07-20T02:31:08.822Z,72.04
2018-07-20T02:33:35.859Z,71.13
2018-07-20T02:36:02.824Z,71.24
2018-07-20T02:38:29.711Z,70.88
2018-07-20T02:40:56.592Z,71.47
2018-07-20T02:43:24.518Z,71.53
2018-07-20T02:45:51.387Z,71.93
2018-07-20T02:48:18.250Z,72.14
2018-07-20T02:50:45.124Z,72.17
2018-07-20T02:53:12.628Z,71.88
2018-07-20T02:55:39.480Z,71.48
2018-07-20T02:58:06.431Z,72.59
2018-07-20T03:00:33.354Z,72.64
2018-07-20T03:03:00.811Z,74.11
2018-07-20T03:05:27.676Z,75.15
2018-07-20T03:07:54.547Z,75.58
2018-07-20T03:10:22.262Z,76.00
2018-07-20T03:12:49.128Z,75.45
2018-07-20T03:15:16.011Z,74.23
2018-07-20T03:17:42.884Z,73.98
2018-07-20T03:20:09.763Z,73.41
2018-07-20T03:22:37.639Z,73.95
2018-07-20T03:25:04.523Z,73.83
2018-07-20T03:27:31.395Z,74.18
2018-07-20T03:29:58.251Z,74.65
2018-07-20T03:32:25.603Z,73.44
2018-07-20T03:34:53.207Z,73.93
2018-07-20T03:37:20.092Z,73.29
2018-07-20T03:39:47.571Z,73.29
2018-07-20T03:42:14.466Z,71.88
2018-07-20T03:44:41.359Z,72.42
2018-07-20T03:47:08.239Z,71.60
2018-07-20T03:49:35.261Z,70.99
2018-07-20T03:52:02.122Z,70.96
2018-07-20T03:54:28.987Z,70.68
2018-07-20T03:56:55.866Z,70.89
2018-07-20T03:59:23.732Z,71.06
2018-07-20T04:01:50.620Z,72.35
2018-07-20T04:04:17.484Z,72.71
2018-07-20T04:06:44.347Z,72.35
2018-07-20T04:09:11.414Z,72.31
2018-07-20T04:11:38.418Z,73.03
2018-07-20T04:14:05.327Z,74.02
2018-07-20T04:16:32.196Z,73.84
2018-07-20T04:18:59.076Z,71.62
2018-07-20T04:21:26.029Z,71.22
2018-07-20T04:23:52.890Z,70.78
2018-07-20T04:26:19.760Z,69.94
2018-07-20T04:28:49.646Z,68.39
2018-07-20T04:31:16.612Z,65.84
2018-07-20T04:33:43.499Z,64.68
2018-07-20T04:36:10.375Z,62.50
2018-07-20T04:38:37.230Z,62.28
2018-07-20T04:41:04.091Z,63.59
2018-07-20T04:43:30.955Z,61.13
2018-07-20T04:45:58.824Z,61.84
2018-07-20T04:48:25.687Z,62.28
2018-07-20T04:50:52.579Z,64.37
2018-07-20T04:53:19.463Z,63.91
2018-07-20T04:55:46.355Z,65.10
2018-07-20T04:58:13.231Z,66.07
2018-07-20T05:00:40.099Z,66.10
2018-07-20T05:03:07.023Z,66.21
2018-07-20T05:05:33.882Z,65.59
2018-07-20T05:08:00.754Z,65.83
2018-07-20T05:10:27.626Z,65.39
2018-07-20T05:12:54.524Z,65.36
2018-07-20T05:15:21.471Z,64.20
2018-07-20T05:17:48.368Z,62.21
2018-07-20T05:20:15.257Z,61.16
2018-07-20T05:22:42.127Z,59.13
2018-07-20T05:25:08.980Z,58.16
2018-07-20T05:27:35.839Z,56.98
2018-07-20T05:30:02.759Z,56.06
2018-07-20T05:32:29.631Z,55.65
2018-07-20T05:34:56.500Z,54.67
2018-07-20T05:37:23.421Z,54.37
2018-07-20T05:39:50.270Z,52.23
2018-07-20T05:42:17.127Z,51.63
2018-07-20T05:44:44.009Z,52.70
2018-07-20T05:47:11.135Z,52.52
2018-07-20T05:49:38.008Z,50.95
2018-07-20T05:52:04.935Z,51.06
2018-07-20T05:54:31.843Z,50.14
2018-07-20T05:56:58.738Z,52.13
2018-07-20T05:59:25.602Z,50.17
2018-07-20T06:01:52.475Z,49.28
2018-07-20T06:04:19.351Z,48.22
2018-07-20T06:06:46.252Z,48.31
2018-07-20T06:09:13.111Z,49.59
2018-07-20T06:11:40.196Z,48.66
2018-07-20T06:14:07.702Z,50.02
2018-07-20T06:16:34.522Z,47.78
2018-07-20T06:19:01.596Z,48.97
2018-07-20T06:21:28.460Z,49.28
2018-07-20T06:23:55.375Z,49.79
2018-07-20T06:26:22.283Z,47.32
2018-07-20T06:28:49.167Z,47.67
2018-07-20T06:31:16.132Z,46.56
2018-07-20T06:33:43.015Z,46.44
2018-07-20T06:36:09.917Z,45.73
2018-07-20T06:38:36.783Z,47.68
2018-07-20T06:41:03.651Z,46.32
2018-07-20T06:43:30.771Z,45.65
2018-07-20T06:45:58.014Z,45.78
2018-07-20T06:48:24.924Z,45.95
2018-07-20T06:50:51.803Z,44.43
2018-07-20T06:53:18.660Z,43.24
2018-07-20T06:55:45.573Z,43.41
2018-07-20T06:58:12.406Z,43.66
2018-07-20T07:00:39.297Z,42.27
2018-07-20T07:03:06.183Z,43.90
2018-07-20T07:05:33.045Z,43.30
2018-07-20T07:07:59.958Z,44.78
2018-07-20T07:10:26.856Z,44.76
2018-07-20T07:12:53.728Z,43.61
2018-07-20T07:15:21.451Z,44.41
2018-07-20T07:17:48.311Z,44.88
2018-07-20T07:20:15.171Z,44.81
2018-07-20T07:22:42.054Z,44.53
2018-07-20T07:25:08.954Z,43.29
2018-07-20T07:27:35.851Z,42.70
2018-07-20T07:30:02.752Z,46.21
2018-07-20T07:32:29.624Z,43.36
2018-07-20T07:34:56.540Z,43.34
2018-07-20T07:37:24.423Z,40.41
2018-07-20T07:39:51.295Z,41.47
2018-07-20T07:42:18.224Z,39.33
2018-07-20T07:44:45.081Z,39.65
2018-07-20T07:47:12.003Z,38.93
2018-07-20T07:49:38.978Z,40.46
2018-07-20T07:52:06.107Z,38.67
2018-07-20T07:54:32.983Z,37.56
2018-07-20T07:56:59.871Z,39.35
2018-07-20T07:59:26.815Z,40.67
2018-07-20T08:01:53.709Z,41.40
2018-07-20T08:04:20.616Z,41.70
2018-07-20T08:06:47.514Z,41.20
2018-07-20T08:09:14.467Z,41.25
2018-07-20T08:11:42.327Z,41.09
2018-07-20T08:14:10.449Z,42.17
2018-07-20T08:16:37.306Z,40.13
2018-07-20T08:19:04.454Z,39.88
2018-07-20T08:21:31.339Z,40.51
2018-07-20T08:23:58.211Z,37.98
2018-07-20T08:26:25.123Z,37.36
2018-07-20T08:28:51.996Z,37.35
2018-07-20T08:31:18.869Z,37.14
2018-07-20T08:33:45.769Z,36.31
2018-07-20T08:36:12.631Z,35.78
2018-07-20T08:38:39.520Z,36.51
2018-07-20T08:41:06.479Z,37.42
2018-07-20T08:43:33.300Z,38.69
2018-07-20T08:46:00.248Z,36.34
2018-07-20T08:48:27.138Z,36.98
2018-07-20T08:50:54.021Z,36.45
2018-07-20T08:53:20.911Z,36.49
2018-07-20T08:55:47.824Z,35.94
2018-07-20T08:58:14.754Z,35.49
2018-07-20T09:00:42.543Z,33.62
2018-07-20T09:03:09.411Z,35.17
2018-07-20T09:05:36.364Z,36.54
2018-07-20T09:08:03.256Z,35.46
2018-07-20T09:10:30.135Z,34.04
2018-07-20T09:12:57.031Z,37.53
2018-07-20T09:15:23.912Z,34.76
2018-07-20T09:17:50.814Z,32.01
2018-07-20T09:20:17.747Z,34.27
2018-07-20T09:22:44.623Z,31.16
2018-07-20T09:25:11.495Z,30.62
2018-07-20T09:27:41.392Z,30.97
2018-07-20T09:30:08.288Z,33.39
2018-07-20T09:32:35.148Z,32.64
2018-07-20T09:35:02.035Z,31.66
2018-07-20T09:37:28.899Z,30.47
2018-07-20T09:39:55.763Z,30.44
2018-07-20T09:42:22.624Z,31.71
2018-07-20T09:44:49.524Z,31.59
2018-07-20T09:47:16.402Z,30.09
2018-07-20T09:49:43.331Z,30.48
2018-07-20T09:52:10.311Z,30.11
2018-07-20T09:54:37.177Z,30.81
2018-07-20T09:57:07.136Z,31.20
2018-07-20T09:59:34.064Z,30.04
2018-07-20T10:02:00.908Z,30.52
2018-07-20T10:04:27.832Z,29.99
2018-07-20T10:06:54.675Z,31.38
2018-07-20T10:09:21.541Z,28.75
2018-07-20T10:11:48.407Z,31.12
2018-07-20T10:14:15.302Z,30.79
2018-07-20T10:16:42.163Z,29.18
2018-07-20T10:19:13.217Z,29.41
2018-07-20T10:21:39.992Z,31.36
2018-07-20T10:24:06.859Z,31.53
2018-07-20T10:26:33.763Z,30.46
2018-07-20T10:29:00.849Z,31.33
2018-07-20T10:31:27.775Z,28.97
2018-07-20T10:33:55.646Z,28.42
2018-07-20T10:36:22.531Z,28.10
2018-07-20T10:38:49.415Z,29.72
2018-07-20T10:41:16.279Z,26.67
2018-07-20T10:43:43.163Z,26.85
2018-07-20T10:46:10.067Z,27.38
2018-07-20T10:48:37.022Z,29.41
2018-07-20T10:51:03.897Z,29.08
2018-07-20T10:53:30.763Z,27.47
2018-07-20T10:56:01.444Z,29.66
2018-07-20T10:58:29.115Z,27.79
2018-07-20T11:00:56.037Z,26.81
2018-07-20T11:03:22.946Z,28.38
2018-07-20T11:05:49.823Z,26.60
2018-07-20T11:08:16.780Z,27.65
2018-07-20T11:10:43.643Z,28.03
2018-07-20T11:13:10.551Z,29.17
2018-07-20T11:15:37.482Z,27.02
2018-07-20T11:18:04.483Z,25.75
2018-07-20T11:20:31.393Z,26.62
2018-07-20T11:22:58.278Z,28.03
2018-07-20T11:25:25.139Z,30.08
2018-07-20T11:27:52.034Z,26.50
2018-07-20T11:30:18.927Z,28.44
2018-07-20T11:32:45.793Z,25.42
2018-07-20T11:35:12.683Z,26.23
2018-07-20T11:37:39.562Z,26.41
2018-07-20T11:40:06.408Z,27.38
2018-07-20T11:42:33.281Z,26.87
2018-07-20T11:45:00.228Z,27.30
2018-07-20T11:47:27.103Z,29.55
2018-07-20T11:49:53.968Z,28.72
2018-07-20T11:52:20.878Z,27.65
2018-07-20T11:54:47.807Z,30.14
2018-07-20T11:57:14.654Z,26.01
2018-07-20T11:59:41.523Z,27.20
2018-07-20T12:02:08.391Z,27.75
2018-07-20T12:04:35.261Z,28.18
2018-07-20T12:07:02.468Z,25.97
2018-07-20T12:09:29.320Z,26.12
2018-07-20T12:11:56.183Z,25.48
2018-07-20T12:14:24.103Z,25.99
2018-07-20T12:16:50.995Z,26.19
2018-07-20T12:19:17.880Z,25.98
2018-07-20T12:21:44.779Z,26.81
2018-07-20T12:24:11.675Z,25.43
2018-07-20T12:26:38.550Z,28.07
2018-07-20T12:29:05.415Z,25.87
2018-07-20T12:31:32.304Z,25.89
2018-07-20T12:33:59.186Z,24.86
2018-07-20T12:36:26.033Z,23.53
2018-07-20T12:38:52.935Z,24.49
2018-07-20T12:41:19.875Z,24.36
2018-07-20T12:43:46.675Z,25.04
2018-07-20T12:46:13.583Z,26.16
2018-07-20T12:48:40.470Z,22.79
2018-07-20T12:51:07.443Z,22.86
2018-07-20T12:53:34.380Z,22.83
2018-07-20T12:56:01.292Z,22.87
2018-07-20T12:58:28.190Z,24.37
2018-07-20T13:00:55.072Z,23.95
2018-07-20T13:03:22.044Z,25.55
2018-07-20T13:05:48.935Z,26.52
2018-07-20T13:08:15.758Z,26.09
2018-07-20T13:10:42.643Z,24.80
2018-07-20T13:13:09.490Z,24.47
2018-07-20T13:15:36.379Z,26.41
2018-07-20T13:18:03.351Z,26.70
2018-07-20T13:20:30.158Z,27.39
2018-07-20T13:23:00.030Z,26.18
2018-07-20T13:25:26.965Z,26.84
2018-07-20T13:27:53.824Z,25.97
2018-07-20T13:30:21.343Z,25.72
2018-07-20T13:32:48.225Z,26.45
2018-07-20T13:35:15.123Z,26.56
2018-07-20T13:37:41.979Z,24.88
2018-07-20T13:40:08.830Z,25.79
2018-07-20T13:42:35.716Z,24.78
2018-07-20T13:45:02.666Z,25.81
2018-07-20T13:47:29.546Z,24.02
2018-07-20T13:49:56.408Z,24.91
2018-07-20T13:52:23.343Z,23.43
2018-07-20T13:54:50.545Z,23.73
2018-07-20T13:57:17.400Z,24.61
2018-07-20T13:59:44.282Z,23.16
2018-07-20T14:02:11.206Z,25.09
2018-07-20T14:04:38.113Z,24.76
2018-07-20T14:07:05.003Z,23.06
2018-07-20T14:09:31.879Z,23.39
2018-07-20T14:11:59.044Z,22.53
2018-07-20T14:14:26.084Z,22.37
2018-07-20T14:16:53.087Z,24.44
2018-07-20T14:19:20.292Z,24.31
2018-07-20T14:21:47.455Z,23.51
2018-07-20T14:24:14.462Z,24.04
2018-07-20T14:26:41.487Z,21.79
2018-07-20T14:29:08.519Z,22.57
2018-07-20T14:31:35.638Z,24.93
2018-07-20T14:34:02.531Z,21.84
2018-07-20T14:36:29.564Z,22.68
2018-07-20T14:38:56.672Z,23.36
2018-07-20T14:41:23.859Z,24.03
2018-07-20T14:43:50.887Z,21.89
2018-07-20T14:46:17.887Z,22.34
2018-07-20T14:48:44.911Z,23.00
2018-07-20T14:51:11.979Z,21.71
2018-07-20T14:53:38.974Z,21.58
2018-07-20T14:56:06.667Z,22.98
2018-07-20T14:58:34.571Z,22.51
2018-07-20T15:01:01.590Z,20.71
2018-07-20T15:03:28.652Z,20.11
2018-07-20T15:05:55.689Z,18.73
2018-07-20T15:08:22.699Z,20.34
2018-07-20T15:10:49.688Z,19.43
2018-07-20T15:13:16.727Z,19.97
2018-07-20T15:15:43.741Z,22.39
2018-07-20T15:18:10.751Z,21.06
2018-07-20T15:20:37.746Z,21.03
2018-07-20T15:23:04.975Z,20.62
2018-07-20T15:25:31.976Z,19.18
2018-07-20T15:27:58.977Z,20.30
2018-07-20T15:30:26.036Z,20.75
2018-07-20T15:32:53.067Z,20.89
2018-07-20T15:35:20.057Z,20.09
2018-07-20T15:37:47.139Z,20.95
2018-07-20T15:40:14.175Z,20.87
2018-07-20T15:42:41.183Z,17.97
2018-07-20T15:45:08.267Z,17.66
2018-07-20T15:47:36.094Z,18.37
2018-07-20T15:50:03.498Z,17.57
2018-07-20T15:54:57.716Z,16.56
2018-07-20T15:57:25.714Z,17.52
2018-07-20T15:59:52.835Z,18.33
2018-07-20T16:02:20.390Z,19.69
2018-07-20T16:04:47.412Z,20.59
2018-07-20T16:07:15.439Z,20.81
2018-07-20T16:09:42.467Z,20.23
2018-07-20T16:12:09.759Z,19.80
2018-07-20T16:14:36.767Z,18.39
2018-07-20T16:17:03.801Z,17.88
2018-07-20T16:19:30.809Z,17.22
2018-07-20T16:21:57.816Z,16.14
2018-07-20T16:24:24.827Z,16.55
2018-07-20T16:26:51.847Z,17.03
2018-07-20T16:29:18.847Z,17.08
2018-07-20T16:31:45.877Z,17.64
2018-07-20T16:34:12.887Z,18.70
2018-07-20T16:36:39.943Z,18.87
2018-07-20T16:39:07.889Z,18.55
2018-07-20T16:41:34.887Z,18.27
2018-07-20T16:44:01.906Z,20.01
2018-07-20T16:46:28.918Z,21.37
2018-07-20T16:48:55.921Z,19.43
2018-07-20T16:51:22.935Z,19.56
2018-07-20T16:53:49.952Z,19.09
2018-07-20T16:56:17.006Z,19.87
2018-07-20T16:58:44.098Z,20.80
2018-07-20T17:01:11.082Z,21.88
2018-07-20T17:03:38.127Z,21.89
2018-07-20T17:06:05.182Z,21.99
2018-07-20T17:08:32.209Z,19.89
2018-07-20T17:10:59.223Z,19.50
2018-07-20T17:13:26.282Z,21.83
2018-07-20T17:15:53.462Z,22.50
2018-07-20T17:18:20.468Z,23.32
2018-07-20T17:20:47.504Z,21.62
2018-07-20T17:23:15.536Z,22.86
2018-07-20T17:25:42.583Z,23.58
2018-07-20T17:28:09.621Z,24.45
2018-07-20T17:30:36.568Z,24.31
2018-07-20T17:33:04.551Z,24.44
2018-07-20T17:35:31.552Z,25.88
2018-07-20T17:37:58.543Z,25.31
2018-07-20T17:40:25.542Z,25.12
2018-07-20T17:42:52.547Z,24.17
2018-07-20T17:45:19.564Z,24.93
2018-07-20T17:47:46.608Z,24.88
2018-07-20T17:50:13.719Z,25.86
2018-07-20T17:52:40.785Z,26.69
2018-07-20T17:55:08.672Z,26.90
2018-07-20T17:57:35.847Z,26.67
2018-07-20T18:00:03.177Z,27.49
2018-07-20T18:02:30.177Z,27.34
2018-07-20T18:04:57.244Z,25.37
2018-07-20T18:07:24.386Z,26.60
2018-07-20T18:09:51.382Z,26.58
2018-07-20T18:12:18.416Z,28.22
2018-07-20T18:14:45.415Z,28.00
2018-07-20T18:17:12.479Z,28.72
2018-07-20T18:19:39.480Z,30.19
2018-07-20T18:22:06.487Z,30.17
2018-07-20T18:24:33.521Z,31.50
2018-07-20T18:27:00.562Z,32.23
2018-07-20T18:29:28.303Z,32.75
2018-07-20T18:31:55.296Z,33.04
2018-07-20T18:34:22.291Z,34.62
2018-07-20T18:36:51.774Z,35.29
2018-07-20T18:39:18.867Z,35.46
2018-07-20T18:41:45.859Z,35.48
2018-07-20T18:44:12.935Z,35.47
2018-07-20T18:46:39.995Z,35.95
2018-07-20T18:49:06.988Z,36.98
2018-07-20T18:51:34.251Z,36.90
2018-07-20T18:54:01.247Z,37.82
2018-07-20T18:56:28.256Z,38.67
2018-07-20T18:58:55.234Z,39.05
2018-07-20T19:01:22.247Z,39.02
2018-07-20T19:03:49.231Z,38.22
2018-07-20T19:06:16.228Z,39.70
2018-07-20T19:08:43.314Z,39.95
2018-07-20T19:11:11.172Z,39.95
2018-07-20T19:13:38.196Z,39.92
2018-07-20T19:16:05.306Z,39.64
2018-07-20T19:18:36.134Z,40.68
2018-07-20T19:21:03.146Z,41.86
2018-07-20T19:23:30.255Z,41.28
2018-07-20T19:25:57.343Z,42.85
2018-07-20T19:28:24.440Z,43.01
2018-07-20T19:30:51.467Z,43.40
2018-07-20T19:33:18.503Z,44.65
2018-07-20T19:35:45.533Z,46.81
2018-07-20T19:38:12.572Z,48.56
2018-07-20T19:40:39.653Z,50.96
2018-07-20T19:43:06.676Z,50.76
2018-07-20T19:45:33.669Z,51.02
2018-07-20T19:48:00.688Z,51.93
2018-07-20T19:50:27.735Z,52.72
2018-07-20T19:52:54.747Z,53.06
2018-07-20T19:55:21.790Z,53.87
2018-07-20T19:57:48.838Z,54.25
2018-07-20T20:00:15.836Z,54.37
2018-07-20T20:02:43.615Z,55.68
2018-07-20T20:05:10.503Z,56.64
2018-07-20T20:07:37.487Z,57.01
2018-07-20T20:10:04.924Z,56.93
2018-07-20T20:12:31.983Z,57.18
2018-07-20T20:14:59.056Z,57.19
2018-07-20T20:17:26.061Z,58.73
2018-07-20T20:19:53.264Z,57.97
2018-07-20T20:22:20.251Z,58.27
2018-07-20T20:24:47.259Z,59.04
2018-07-20T20:27:14.270Z,58.97
2018-07-20T20:29:41.271Z,57.90
2018-07-20T20:32:08.283Z,58.83
2018-07-20T20:34:36.211Z,57.96
2018-07-20T20:37:03.225Z,57.91
2018-07-20T20:39:30.249Z,57.42
2018-07-20T20:41:57.215Z,57.39
2018-07-20T20:44:24.399Z,57.20
2018-07-20T20:46:51.398Z,56.73
2018-07-20T20:49:18.379Z,56.62
2018-07-20T20:51:45.376Z,57.64
2018-07-20T20:54:12.363Z,57.61
2018-07-20T20:56:39.362Z,57.45
2018-07-20T20:59:09.725Z,57.50
2018-07-20T21:01:36.776Z,58.32
2018-07-20T21:04:03.772Z,58.38
2018-07-20T21:06:30.752Z,57.70
2018-07-20T21:08:57.719Z,57.52
2018-07-20T21:11:24.704Z,57.96
2018-07-20T21:13:51.695Z,57.14
2018-07-20T21:16:18.746Z,56.43
2018-07-20T21:18:45.817Z,57.16
2018-07-20T21:21:12.824Z,56.79
2018-07-20T21:23:39.827Z,57.27
2018-07-20T21:26:06.871Z,57.97
2018-07-20T21:28:33.871Z,58.10
2018-07-20T21:31:00.852Z,57.85
2018-07-20T21:33:28.847Z,58.47
2018-07-20T21:35:55.831Z,58.08
2018-07-20T21:38:22.859Z,59.78
2018-07-20T21:40:49.887Z,60.64
2018-07-20T21:43:16.975Z,60.73
2018-07-20T21:45:44.871Z,59.88
2018-07-20T21:48:11.862Z,60.42
2018-07-20T21:50:38.832Z,60.44
2018-07-20T21:53:05.935Z,60.91
2018-07-20T21:55:32.974Z,60.81
2018-07-20T21:57:59.961Z,61.07
2018-07-20T22:00:26.915Z,60.36
2018-07-20T22:02:53.855Z,61.00
2018-07-20T22:05:20.819Z,61.23
2018-07-20T22:07:47.841Z,60.82
2018-07-20T22:10:14.798Z,60.23
2018-07-20T22:12:41.769Z,59.84
2018-07-20T22:15:09.111Z,59.83
2018-07-20T22:17:36.149Z,60.35
2018-07-20T22:20:04.084Z,59.86
2018-07-20T22:22:31.219Z,60.18
2018-07-20T22:24:58.207Z,60.19
2018-07-20T22:27:25.200Z,61.09
2018-07-20T22:29:52.196Z,61.17
2018-07-20T22:32:19.087Z,60.84
2018-07-20T22:34:46.022Z,62.00
2018-07-20T22:37:12.974Z,62.46
2018-07-20T22:39:39.931Z,61.98
2018-07-20T22:42:06.904Z,61.33
2018-07-20T22:44:33.879Z,61.68
2018-07-20T22:47:00.817Z,63.00
2018-07-20T22:49:27.768Z,62.49
2018-07-20T22:51:54.720Z,63.59
2018-07-20T22:54:21.676Z,62.60
2018-07-20T22:56:48.655Z,62.25
2018-07-20T22:59:15.600Z,62.47
2018-07-20T23:01:42.554Z,64.31
2018-07-20T23:04:09.544Z,63.89
2018-07-20T23:06:36.544Z,64.43
2018-07-20T23:09:06.747Z,64.79
2018-07-20T23:11:33.734Z,65.45
2018-07-20T23:14:00.679Z,65.42
2018-07-20T23:16:27.659Z,65.95
2018-07-20T23:18:54.664Z,65.48
2018-07-20T23:21:21.609Z,66.42
2018-07-20T23:23:48.543Z,66.94
2018-07-20T23:26:15.475Z,66.35
2018-07-20T23:28:42.476Z,65.28
2018-07-20T23:31:09.408Z,66.67
2018-07-20T23:33:36.395Z,66.62
2018-07-20T23:36:03.355Z,67.00
2018-07-20T23:38:30.535Z,66.96
2018-07-20T23:40:57.481Z,67.00
2018-07-20T23:43:24.415Z,66.35
2018-07-20T23:45:51.375Z,67.30
2018-07-20T23:48:18.326Z,67.51
2018-07-20T23:50:45.289Z,67.23
2018-07-20T23:53:12.223Z,68.20
2018-07-20T23:55:39.172Z,68.71
2018-07-20T23:58:06.161Z,67.91
